Главная страница
METAR-TAF:

METAR-TAF

Аэропорты :

Deline, Северо-Западные Территории, Канада

широта: 65-12N, долгота: 123-26W, высота над уровнем моря: 176 м

Текущие метеонаблюдения

Эта сводка был подготовлена 5 часа и 35 минут назад, в 23:00 UTC
Ветер 6 Узел от западно-северо-западный
Температура 10°C
Влажность 32%
Давление 1015 hPa
Видимость: 64.4 км
небольшая облачность на высоте 17000 фута
Отдельные облака на высоте 20000 фута

METAR: CYWJ 262300Z 30006KT 40SM FEW170 SCT200 10/M06 A2998 RMK AC2CS2 10.0/2.2/0/20 MUCH LOOSE LAST STFD OBS/NXT 271300UTC SLP166

Время: 22:35 (04:35 UTC)

Прогноз

Эта сводка был подготовлена 10 часа и 57 минут назад, в 17:38 UTC
Прогноз действительный с 26-го 18 UTC до 26-го 23 UTC
Ветер 12 Узел от западный-юго-западный
Видимость: 10 км
ясное небо
изменения
С 26-го 21 UTC до 26-го 23 UTC
Ветер 5 Узел от западный

TAF: CYWJ 261738Z 2618/2623 25012KT P6SM SKC BECMG 2621/2623 28005KT RMK NXT FCST WILL BE ISSUED AT 271415Z

Метеонаблюдения и прогнозы для более 4000 аэропортов (сводки METAR и TAF).

Имеющиеся станции представлены на карте желтыми и красными точками.

Чтобы увидеть название станции, наведите на нее мышь.

Затем щелкните, чтобы увидеть метеонаблюдения и метеопрогнозы.

Управление картой: чтобы увеличить масштаб, щелкните зеленые кнопки с черным крестиком; чтобы уменьшить масштаб, щелкните зеленую кнопку с тире; для просмотра соседних карт щелкайте зеленые стрелки.


METAR-TAF: